Satellite Precipitation Estimates (TXUS20 KWBC)
Issued by NWS

Home | Current Version | Previous Version | Text Only | Print | Product List | Glossary On
Versions: 1 2 3 4
000
SPTD31 TTPP 191316
SPECI
TTPP 191313Z 10012G20KT 070V160 9000 -SHRA FEW015 BKN018 28/24 Q1013
NOSIG=



USA.gov is the U.S. government's official web portal to all federal, state and local government web resources and services.